Garre, Argentina
Current Conditions -  °F | °C
As of 1:00 PM on Saturday 20 Dec 2014 (Local Time) from SAOC Reporting Station
Scattered Clouds Scattered Clouds  
Wind Chill: 73°   Ceiling: Unl
Heat Index: 73°   Visibility: 6mi
Dew Point: 52°   Wind: 23mph
Humidity: 47%   Direction: 160°SSE
Pressure: 29.68"   Gusts: NA
Location:  36.57°S, 62.6°W
Report Text: SAOC 201600Z 16020KT 9999 FEW020 SCT02523/11 Q1005
Loading
Personal Weather Stations






























Interactive Weather Map New forecast layout! Learn more

10-Day Weather Forecast

Advertisements
Track Severe Weather on mobile